Map

Track Data

SID SEASON NUMBER BASIN SUBBASIN NAME ISO_TIME NATURE LAT LON WMO_WIND WMO_PRES WMO_AGENCY TRACK_TYPE DIST2LAND LANDFALL IFLAG USA_AGENCY USA_ATCF_ID USA_LAT USA_LON USA_RECORD USA_STATUS USA_WIND USA_PRES USA_SSHS USA_R34_NE USA_R34_SE USA_R34_SW USA_R34_NW USA_R50_NE USA_R50_SE USA_R50_SW USA_R50_NW USA_R64_NE USA_R64_SE USA_R64_SW USA_R64_NW USA_POCI USA_ROCI USA_RMW USA_EYE TOKYO_LAT TOKYO_LON TOKYO_GRADE TOKYO_WIND TOKYO_PRES TOKYO_R50_DIR TOKYO_R50_LONG TOKYO_R50_SHORT TOKYO_R30_DIR TOKYO_R30_LONG TOKYO_R30_SHORT TOKYO_LAND CMA_LAT CMA_LON CMA_CAT CMA_WIND CMA_PRES HKO_LAT HKO_LON HKO_CAT HKO_WIND HKO_PRES NEWDELHI_LAT NEWDELHI_LON NEWDELHI_GRADE NEWDELHI_WIND NEWDELHI_PRES NEWDELHI_CI NEWDELHI_DP NEWDELHI_POCI REUNION_LAT REUNION_LON REUNION_TYPE REUNION_WIND REUNION_PRES REUNION_TNUM REUNION_CI REUNION_RMW REUNION_R34_NE REUNION_R34_SE REUNION_R34_SW REUNION_R34_NW REUNION_R50_NE REUNION_R50_SE REUNION_R50_SW REUNION_R50_NW REUNION_R64_NE REUNION_R64_SE REUNION_R64_SW REUNION_R64_NW BOM_LAT BOM_LON BOM_TYPE BOM_WIND BOM_PRES BOM_TNUM BOM_CI BOM_RMW BOM_R34_NE BOM_R34_SE BOM_R34_SW BOM_R34_NW BOM_R50_NE BOM_R50_SE BOM_R50_SW BOM_R50_NW BOM_R64_NE BOM_R64_SE BOM_R64_SW BOM_R64_NW BOM_ROCI BOM_POCI BOM_EYE BOM_POS_METHOD BOM_PRES_METHOD NADI_LAT NADI_LON NADI_CAT NADI_WIND NADI_PRES WELLINGTON_LAT WELLINGTON_LON WELLINGTON_WIND WELLINGTON_PRES DS824_LAT DS824_LON DS824_STAGE DS824_WIND DS824_PRES TD9636_LAT TD9636_LON TD9636_STAGE TD9636_WIND TD9636_PRES TD9635_LAT TD9635_LON TD9635_WIND TD9635_PRES TD9635_ROCI NEUMANN_LAT NEUMANN_LON NEUMANN_CLASS NEUMANN_WIND NEUMANN_PRES MLC_LAT MLC_LON MLC_CLASS MLC_WIND MLC_PRES USA_GUST BOM_GUST BOM_GUST_PER REUNION_GUST REUNION_GUST_PER USA_SEAHGT USA_SEARAD_NE USA_SEARAD_SE USA_SEARAD_SW USA_SEARAD_NW STORM_SPEED STORM_DIR
1919218N16149 1919 22 WP MM NOT_NAMED 1919-08-05 21:00:00 NR 16.1000 149.100 main 2047 2045 __________O___ -1 16.1000 149.100 7 11 286
1919218N16149 1919 22 WP MM NOT_NAMED 1919-08-06 00:00:00 NR 16.2513 148.557 main 2065 2063 __________P___ -1 16.2513 148.557 7 11 286
1919218N16149 1919 22 WP MM NOT_NAMED 1919-08-06 03:00:00 NR 16.3915 148.021 main 2073 2072 __________P___ -1 16.3915 148.021 7 10 284
1919218N16149 1919 22 WP MM NOT_NAMED 1919-08-06 06:00:00 NR 16.5109 147.499 main 2083 2083 __________P___ -1 16.5109 147.499 7 10 282
1919218N16149 1919 22 WP MM NOT_NAMED 1919-08-06 09:00:00 NR 16.6000 147.000 main 2094 2094 __________O___ -1 16.6000 147.000 7 9 279
1919218N16149 1919 22 WP MM NOT_NAMED 1919-08-06 12:00:00 NR 16.6530 146.526 main 2105 2105 __________P___ -1 16.6530 146.526 7 9 275
1919218N16149 1919 22 WP MM NOT_NAMED 1919-08-06 15:00:00 NR 16.6789 146.064 main 2106 2106 __________P___ -1 16.6789 146.064 7 9 272
1919218N16149 1919 22 WP MM NOT_NAMED 1919-08-06 18:00:00 NR 16.6904 145.595 main 2107 2084 __________P___ -1 16.6904 145.595 7 9 271
1919218N16149 1919 22 WP MM NOT_NAMED 1919-08-06 21:00:00 NR 16.7000 145.100 main 2084 2063 __________O___ -1 16.7000 145.100 7 10 272
1919218N16149 1919 22 WP MM NOT_NAMED 1919-08-07 00:00:00 NR 16.7207 144.562 main 2063 2038 __________P___ -1 16.7207 144.562 7 11 272
1919218N16149 1919 22 WP MM NOT_NAMED 1919-08-07 03:00:00 NR 16.7421 143.995 main 2038 1994 __________P___ -1 16.7421 143.995 7 11 272
1919218N16149 1919 22 WP MM NOT_NAMED 1919-08-07 06:00:00 NR 16.7674 143.405 main 1994 1932 __________P___ -1 16.7674 143.405 7 11 273
1919218N16149 1919 22 WP MM NOT_NAMED 1919-08-07 09:00:00 NR 16.8000 142.800 main 1932 1869 __________O___ -1 16.8000 142.800 7 12 273
1919218N16149 1919 22 WP MM NOT_NAMED 1919-08-07 12:00:00 NR 16.8393 142.137 main 1859 1800 __________P___ -1 16.8393 142.137 7 13 274
1919218N16149 1919 22 WP MM NOT_NAMED 1919-08-07 15:00:00 NR 16.8860 141.468 main 1800 1738 __________P___ -1 16.8860 141.468 7 12 275
1919218N16149 1919 22 WP MM NOT_NAMED 1919-08-07 18:00:00 NR 16.9395 140.840 main 1728 1680 __________P___ -1 16.9395 140.840 7 11 276
1919218N16149 1919 22 WP MM NOT_NAMED 1919-08-07 21:00:00 NR 17.0000 140.300 main 1680 1643 __________O___ -1 17.0000 140.300 7 9 278
1919218N16149 1919 22 WP MM NOT_NAMED 1919-08-08 00:00:00 NR 17.0708 139.894 main 1643 1612 __________P___ -1 17.0708 139.894 7 7 282
1919218N16149 1919 22 WP MM NOT_NAMED 1919-08-08 03:00:00 NR 17.1488 139.580 main 1612 1586 __________P___ -1 17.1488 139.580 7 6 286
1919218N16149 1919 22 WP MM NOT_NAMED 1919-08-08 06:00:00 NR 17.2274 139.326 main 1586 1569 __________P___ -1 17.2274 139.326 7 5 288
1919218N16149 1919 22 WP MM NOT_NAMED 1919-08-08 09:00:00 NR 17.3000 139.100 main 1569 1549 __________O___ -1 17.3000 139.100 7 4 284
1919218N16149 1919 22 WP MM NOT_NAMED 1919-08-08 12:00:00 NR 17.3234 138.934 main 1549 1539 __________P___ -1 17.3234 138.934 7 3 278
1919218N16149 1919 22 WP MM NOT_NAMED 1919-08-08 15:00:00 NR 17.3455 138.776 main 1539 1523 __________P___ -1 17.3455 138.776 7 4 281
1919218N16149 1919 22 WP MM NOT_NAMED 1919-08-08 18:00:00 NR 17.3948 138.555 main 1523 1488 __________P___ -1 17.3948 138.555 7 6 286
1919218N16149 1919 22 WP MM NOT_NAMED 1919-08-08 21:00:00 NR 17.5000 138.200 main 1488 1443 __________O___ -1 17.5000 138.200 7 9 287
1919218N16149 1919 22 WP MM NOT_NAMED 1919-08-09 00:00:00 NR 17.6690 137.627 main 1438 1389 __________P___ -1 17.6690 137.627 7 13 288
1919218N16149 1919 22 WP MM NOT_NAMED 1919-08-09 03:00:00 NR 17.8962 136.914 main 1380 1324 __________P___ -1 17.8962 136.914 7 15 289
1919218N16149 1919 22 WP MM NOT_NAMED 1919-08-09 06:00:00 NR 18.1750 136.120 main 1320 1265 __________P___ -1 18.1750 136.120 7 17 291
1919218N16149 1919 22 WP MM NOT_NAMED 1919-08-09 09:00:00 NR 18.5000 135.300 main 1265 1208 __________O___ -1 18.5000 135.300 7 17 294
1919218N16149 1919 22 WP MM NOT_NAMED 1919-08-09 12:00:00 NR 18.8909 134.440 main 1204 1151 __________P___ -1 18.8909 134.440 7 18 297
1919218N16149 1919 22 WP MM NOT_NAMED 1919-08-09 15:00:00 NR 19.3174 133.581 main 1151 1104 __________P___ -1 19.3174 133.581 7 18 299
1919218N16149 1919 22 WP MM NOT_NAMED 1919-08-09 18:00:00 NR 19.7349 132.806 main 1104 1056 __________P___ -1 19.7349 132.806 7 15 301
1919218N16149 1919 22 WP MM NOT_NAMED 1919-08-09 21:00:00 NR 20.1000 132.200 main 1056 1029 __________O___ -1 20.1000 132.200 7 11 305
1919218N16149 1919 22 WP MM NOT_NAMED 1919-08-10 00:00:00 NR 20.3593 131.868 main 1031 1012 __________P___ -1 20.3593 131.868 7 7 315
1919218N16149 1919 22 WP MM NOT_NAMED 1919-08-10 03:00:00 NR 20.5650 131.710 main 1015 1007 __________P___ -1 20.5650 131.710 7 4 331
1919218N16149 1919 22 WP MM NOT_NAMED 1919-08-10 06:00:00 NR 20.7382 131.647 main 1007 1007 __________P___ -1 20.7382 131.647 7 4 342
1919218N16149 1919 22 WP MM NOT_NAMED 1919-08-10 09:00:00 NR 20.9000 131.600 main 1012 1005 __________O___ -1 20.9000 131.600 7 4 331
1919218N16149 1919 22 WP MM NOT_NAMED 1919-08-10 12:00:00 NR 21.0822 131.446 main 998 992 __________P___ -1 21.0822 131.446 7 5 321
1919218N16149 1919 22 WP MM NOT_NAMED 1919-08-10 15:00:00 NR 21.2575 131.292 main 995 985 __________P___ -1 21.2575 131.292 7 4 321
1919218N16149 1919 22 WP MM NOT_NAMED 1919-08-10 18:00:00 NR 21.4291 131.143 main 979 972 __________P___ -1 21.4291 131.143 7 4 322
1919218N16149 1919 22 WP MM NOT_NAMED 1919-08-10 21:00:00 NR 21.6000 131.000 main 976 970 __________O___ -1 21.6000 131.000 7 4 322
1919218N16149 1919 22 WP MM NOT_NAMED 1919-08-11 00:00:00 NR 21.7546 130.872 main 967 954 __________P___ -1 21.7546 130.872 7 4 323
1919218N16149 1919 22 WP MM NOT_NAMED 1919-08-11 03:00:00 NR 21.9124 130.750 main 944 927 __________P___ -1 21.9124 130.750 7 4 326
1919218N16149 1919 22 WP MM NOT_NAMED 1919-08-11 06:00:00 NR 22.0890 130.628 main 927 910 __________P___ -1 22.0890 130.628 7 5 329
1919218N16149 1919 22 WP MM NOT_NAMED 1919-08-11 09:00:00 NR 22.3000 130.500 main 910 891 __________O___ -1 22.3000 130.500 7 6 332
1919218N16149 1919 22 WP MM NOT_NAMED 1919-08-11 12:00:00 NR 22.5763 130.353 main 891 863 __________P___ -1 22.5763 130.353 7 7 335
1919218N16149 1919 22 WP MM NOT_NAMED 1919-08-11 15:00:00 NR 22.8850 130.200 main 863 845 __________P___ -1 22.8850 130.200 7 7 336
1919218N16149 1919 22 WP MM NOT_NAMED 1919-08-11 18:00:00 NR 23.2013 130.047 main 835 817 __________P___ -1 23.2013 130.047 7 7 336
1919218N16149 1919 22 WP MM NOT_NAMED 1919-08-11 21:00:00 NR 23.5000 129.900 main 817 802 __________O___ -1 23.5000 129.900 7 6 335
1919218N16149 1919 22 WP MM NOT_NAMED 1919-08-12 00:00:00 NR 23.7465 129.768 main 802 776 __________P___ -1 23.7465 129.768 7 5 333
1919218N16149 1919 22 WP MM NOT_NAMED 1919-08-12 03:00:00 NR 23.9724 129.642 main 776 762 __________P___ -1 23.9724 129.642 7 5 333
1919218N16149 1919 22 WP MM NOT_NAMED 1919-08-12 06:00:00 NR 24.1871 129.521 main 762 747 __________P___ -1 24.1871 129.521 7 5 333
1919218N16149 1919 22 WP MM NOT_NAMED 1919-08-12 09:00:00 NR 24.4000 129.400 main 747 727 __________O___ -1 24.4000 129.400 4 5 332
1919218N16149 1919 22 WP MM NOT_NAMED 1919-08-12 12:00:00 NR 24.6087 129.279 main 727 707 __________P___ -1 24.6087 129.279 4 5 332
1919218N16149 1919 22 WP MM NOT_NAMED 1919-08-12 15:00:00 NR 24.8199 129.157 main 707 688 __________P___ -1 24.8199 129.157 4 5 333
1919218N16149 1919 22 WP MM NOT_NAMED 1919-08-12 18:00:00 NR 25.0462 129.032 main 690 660 __________P___ -1 25.0462 129.032 4 5 334
1919218N16149 1919 22 WP MM NOT_NAMED 1919-08-12 21:00:00 NR 25.3000 128.900 main 660 633 __________O___ -1 25.3000 128.900 4 6 333
1919218N16149 1919 22 WP MM NOT_NAMED 1919-08-13 00:00:00 NR 25.5761 128.729 main 633 605 __________P___ -1 25.5761 128.729 4 7 332
1919218N16149 1919 22 WP MM NOT_NAMED 1919-08-13 03:00:00 NR 25.8827 128.556 main 605 580 __________P___ -1 25.8827 128.556 4 7 336
1919218N16149 1919 22 WP MM NOT_NAMED 1919-08-13 06:00:00 NR 26.2230 128.404 main 580 543 __________P___ -1 26.2230 128.404 4 8 342
1919218N16149 1919 22 WP MM NOT_NAMED 1919-08-13 09:00:00 NR 26.6000 128.300 main 543 503 __________O___ -1 26.6000 128.300 4 8 352
1919218N16149 1919 22 WP MM NOT_NAMED 1919-08-13 12:00:00 NR 27.0586 128.278 main 493 452 __________P___ -1 27.0586 128.278 4 9 0
1919218N16149 1919 22 WP MM NOT_NAMED 1919-08-13 15:00:00 NR 27.5449 128.304 main 452 397 __________P___ -1 27.5449 128.304 4 10 4
1919218N16149 1919 22 WP MM NOT_NAMED 1919-08-13 18:00:00 NR 28.0087 128.353 main 397 357 __________P___ -1 28.0087 128.353 4 9 6
1919218N16149 1919 22 WP MM NOT_NAMED 1919-08-13 21:00:00 NR 28.4000 128.400 main 357 328 __________O___ -1 28.4000 128.400 4 7 3
1919218N16149 1919 22 WP MM NOT_NAMED 1919-08-14 00:00:00 NR 28.6662 128.407 main 328 318 __________P___ -1 28.6662 128.407 4 5 0
1919218N16149 1919 22 WP MM NOT_NAMED 1919-08-14 03:00:00 NR 28.8549 128.408 main 309 300 __________P___ -1 28.8549 128.408 4 3 0
1919218N16149 1919 22 WP MM NOT_NAMED 1919-08-14 06:00:00 NR 28.9912 128.404 main 300 291 __________P___ -1 28.9912 128.404 4 2 0
1919218N16149 1919 22 WP MM NOT_NAMED 1919-08-14 09:00:00 NR 29.1000 128.400 main 291 282 __________O___ -1 29.1000 128.400 4 2 0
1919218N16149 1919 22 WP MM NOT_NAMED 1919-08-14 12:00:00 NR 29.2053 128.400 main 282 273 __________P___ -1 29.2053 128.400 4 2 7
1919218N16149 1919 22 WP MM NOT_NAMED 1919-08-14 15:00:00 NR 29.2925 128.400 main 273 264 __________P___ -1 29.2925 128.400 4 2 0
1919218N16149 1919 22 WP MM NOT_NAMED 1919-08-14 18:00:00 NR 29.3834 128.400 main 264 256 __________P___ -1 29.3834 128.400 4 2 8
1919218N16149 1919 22 WP MM NOT_NAMED 1919-08-14 21:00:00 NR 29.5000 128.400 main 256 248 __________O___ -1 29.5000 128.400 4 2 353
1919218N16149 1919 22 WP MM NOT_NAMED 1919-08-15 00:00:00 NR 29.6022 128.376 main 248 240 __________P___ -1 29.6022 128.376 4 2 349
1919218N16149 1919 22 WP MM NOT_NAMED 1919-08-15 03:00:00 NR 29.7425 128.356 main 240 225 __________P___ -1 29.7425 128.356 4 4 0
1919218N16149 1919 22 WP MM NOT_NAMED 1919-08-15 06:00:00 NR 29.9615 128.358 main 217 198 __________P___ -1 29.9615 128.358 4 6 5
1919218N16149 1919 22 WP MM NOT_NAMED 1919-08-15 09:00:00 NR 30.3000 128.400 main 198 167 __________O___ -1 30.3000 128.400 7 9 7
1919218N16149 1919 22 WP MM NOT_NAMED 1919-08-15 12:00:00 NR 30.8069 128.487 main 167 151 __________P___ -1 30.8069 128.487 7 11 9
1919218N16149 1919 22 WP MM NOT_NAMED 1919-08-15 15:00:00 NR 31.4300 128.618 main 152 101 __________P___ -1 31.4300 128.618 7 13 11
1919218N16149 1919 22 WP MM NOT_NAMED 1919-08-15 18:00:00 NR 32.1131 128.790 main 101 57 __________P___ -1 32.1131 128.790 7 14 13
1919218N16149 1919 22 WP MM NOT_NAMED 1919-08-15 21:00:00 NR 32.8000 129.000 main 57 37 __________O___ -1 32.8000 129.000 7 13 15
1919218N16149 1919 22 WP MM NOT_NAMED 1919-08-16 00:00:00 NR 33.3659 129.195 main 38 35 __________P___ -1 33.3659 129.195 7 12 18
1919218N16149 1919 22 WP MM NOT_NAMED 1919-08-16 03:00:00 NR 33.9312 129.430 main 64 64 __________P___ -1 33.9312 129.430 7 12 21
1919218N16149 1919 22 WP MM NOT_NAMED 1919-08-16 06:00:00 NR 34.5310 129.725 main 84 63 __________P___ -1 34.5310 129.725 7 14 24
1919218N16149 1919 22 WP MM NOT_NAMED 1919-08-16 09:00:00 NR 35.2000 130.100 main 67 64 __________O___ -1 35.2000 130.100 7 17 25
1919218N16149 1919 22 WP MM NOT_NAMED 1919-08-16 12:00:00 NR 36.0446 130.606 main 89 89 __________P___ -1 36.0446 130.606 7 20 27
1919218N16149 1919 22 WP MM NOT_NAMED 1919-08-16 15:00:00 NR 36.9472 131.194 main 152 152 __________P___ -1 36.9472 131.194 7 20 28
1919218N16149 1919 22 WP MM NOT_NAMED 1919-08-16 18:00:00 NR 37.8260 131.812 main 225 225 __________P___ -1 37.8260 131.812 7 19 30
1919218N16149 1919 22 WP MM NOT_NAMED 1919-08-16 21:00:00 NR 38.6000 132.400 main 304 304 __________O___ -1 38.6000 132.400 7 16 32
1919218N16149 1919 22 WP MM NOT_NAMED 1919-08-17 00:00:00 NR 39.1758 132.890 main 324 324 __________P___ -1 39.1758 132.890 7 13 35
1919218N16149 1919 22 WP MM NOT_NAMED 1919-08-17 03:00:00 NR 39.6409 133.332 main 332 304 __________P___ -1 39.6409 133.332 7 11 37
1919218N16149 1919 22 WP MM NOT_NAMED 1919-08-17 06:00:00 NR 40.0356 133.732 main 305 269 __________P___ -1 40.0356 133.732 7 10 38
1919218N16149 1919 22 WP MM NOT_NAMED 1919-08-17 09:00:00 NR 40.4000 134.100 main 269 229 __________O___ -1 40.4000 134.100 7 9 36
1919218N16149 1919 22 WP MM NOT_NAMED 1919-08-17 12:00:00 NR 40.8038 134.452 main 232 199 __________P___ -1 40.8038 134.452 7 9 33
1919218N16149 1919 22 WP MM NOT_NAMED 1919-08-17 15:00:00 NR 41.1864 134.776 main 199 179 __________P___ -1 41.1864 134.776 7 9 32
1919218N16149 1919 22 WP MM NOT_NAMED 1919-08-17 18:00:00 NR 41.5508 135.086 main 174 165 __________P___ -1 41.5508 135.086 7 9 33
1919218N16149 1919 22 WP MM NOT_NAMED 1919-08-17 21:00:00 NR 41.9000 135.400 main 165 151 __________O___ -1 41.9000 135.400 7 8 36
1919218N16149 1919 22 WP MM NOT_NAMED 1919-08-18 00:00:00 NR 42.2310 135.744 main 151 132 __________P___ -1 42.2310 135.744 7 8 38
1919218N16149 1919 22 WP MM NOT_NAMED 1919-08-18 03:00:00 NR 42.5497 136.095 main 137 124 __________P___ -1 42.5497 136.095 7 8 39
1919218N16149 1919 22 WP MM NOT_NAMED 1919-08-18 06:00:00 NR 42.8685 136.448 main 124 123 __________P___ -1 42.8685 136.448 7 8 38
1919218N16149 1919 22 WP MM NOT_NAMED 1919-08-18 09:00:00 NR 43.2000 136.800 main 130 130 __________O___ -1 43.2000 136.800 7 9 37
1919218N16149 1919 22 WP MM NOT_NAMED 1919-08-18 12:00:00 NR 43.5535 137.150 main 123 116 __________P___ -1 43.5535 137.150 7 9 35
1919218N16149 1919 22 WP MM NOT_NAMED 1919-08-18 15:00:00 NR 43.9258 137.498 main 122 115 __________P___ -1 43.9258 137.498 7 9 34
1919218N16149 1919 22 WP MM NOT_NAMED 1919-08-18 18:00:00 NR 44.3101 137.848 main 116 115 __________P___ -1 44.3101 137.848 7 9 33
1919218N16149 1919 22 WP MM NOT_NAMED 1919-08-18 21:00:00 NR 44.7000 138.200 main 116 __________O___ -1 44.7000 138.200 7 9 33

Digital Typhoon Data and Search

About IBTrACS Database

This database is a web-friendly format of International Best Track Archive for Climate Stewardship (IBTrACS), a global best track data archive curated by NOAA dating back to 1842.

Updated: 2021-11-26